nws-alerts: Checking more than four warning/county codes can delay the loading of your pages. You should use a cron job to get the data.
EllijayWeather Historical Data
Daily Summary for December 09, 2019 Units:  English    Metric   Both
Daily Weekly Monthly Yearly
  High: Low: Average:
Temperature: 59.0 °F 43.0 °F 49.7 °F
Dew Point: 55.0 °F 34.0 °F 45.9 °F
Humidity: 96% 59% 87%
Wind Speed: 5mph 0mph 0.6mph
Wind Gust: 8mph - -
Wind- - SE
Pressure: 30.2 in 30.0 in -
Precipitation: 0.030 in    
 
 
Tabular Data for December 09, 2019
Time Temperature Dew Point Pressure Wind Wind Speed Wind Gust Humidity Rainfall Rate (Hourly)
00:04 48.0 °F 35.0 °F 30.2 in East 2 mph 5 mph 60% 0.000 in
00:09 48.0 °F 34.0 °F 30.2 in SE 2 mph 2 mph 59% 0.000 in
00:14 48.0 °F 34.0 °F 30.2 in ESE 2 mph 4 mph 59% 0.000 in
00:19 48.0 °F 34.0 °F 30.2 in South 4 mph 4 mph 59% 0.000 in
00:24 48.0 °F 34.0 °F 30.2 in Calm   4 mph 59% 0.000 in
00:29 48.0 °F 34.0 °F 30.2 in SSE 4 mph 4 mph 59% 0.000 in
00:34 48.0 °F 34.0 °F 30.2 in SE 1 mph 5 mph 60% 0.000 in
00:39 48.0 °F 34.0 °F 30.2 in SE 4 mph 4 mph 60% 0.000 in
00:44 48.0 °F 34.0 °F 30.2 in SE 5 mph 5 mph 60% 0.000 in
00:49 48.0 °F 34.0 °F 30.2 in SSE 1 mph 4 mph 60% 0.000 in
00:54 48.0 °F 34.0 °F 30.2 in SSE 2 mph 2 mph 60% 0.000 in
00:59 48.0 °F 35.0 °F 30.2 in SSE 1 mph 1 mph 61% 0.000 in
01:04 48.0 °F 35.0 °F 30.2 in SSE 1 mph 1 mph 61% 0.000 in
01:09 48.0 °F 37.0 °F 30.2 in SSE 2 mph 4 mph 66% 0.000 in
01:14 47.0 °F 38.0 °F 30.2 in Calm   4 mph 71% 0.000 in
01:19 47.0 °F 39.0 °F 30.2 in Calm     76% 0.010 in
01:24 46.0 °F 40.0 °F 30.2 in Calm     80% 0.010 in
01:29 45.0 °F 40.0 °F 30.2 in Calm     83% 0.010 in
01:34 44.0 °F 39.0 °F 30.2 in Calm   1 mph 83% 0.010 in
01:39 44.0 °F 39.0 °F 30.2 in Calm     85% 0.010 in
01:44 43.0 °F 39.0 °F 30.2 in Calm     85% 0.010 in
01:49 43.0 °F 38.0 °F 30.2 in SSE 4 mph 4 mph 83% 0.010 in
01:54 43.0 °F 37.0 °F 30.2 in ESE 2 mph 5 mph 79% 0.010 in
01:59 44.0 °F 37.0 °F 30.2 in Calm   5 mph 79% 0.010 in
02:04 44.0 °F 37.0 °F 30.2 in ESE 2 mph 4 mph 79% 0.010 in
02:09 44.0 °F 37.0 °F 30.2 in SSE 5 mph 6 mph 79% 0.010 in
02:14 43.0 °F 37.0 °F 30.2 in SE 4 mph 7 mph 79% 0.010 in
02:19 43.0 °F 37.0 °F 30.2 in Calm   5 mph 77% 0.000 in
02:24 43.0 °F 37.0 °F 30.2 in ESE 5 mph 5 mph 78% 0.000 in
02:29 43.0 °F 37.0 °F 30.1 in SE 4 mph 6 mph 79% 0.000 in
02:34 43.0 °F 37.0 °F 30.1 in SE 2 mph 4 mph 79% 0.000 in
02:39 43.0 °F 37.0 °F 30.1 in ESE 1 mph 4 mph 77% 0.000 in
02:44 43.0 °F 37.0 °F 30.1 in ESE 1 mph 4 mph 78% 0.000 in
02:49 44.0 °F 37.0 °F 30.1 in ESE 5 mph 8 mph 77% 0.000 in
02:54 44.0 °F 37.0 °F 30.1 in Calm   2 mph 78% 0.000 in
02:59 44.0 °F 37.0 °F 30.1 in Calm   2 mph 78% 0.000 in
03:04 44.0 °F 37.0 °F 30.1 in Calm   1 mph 78% 0.000 in
03:09 44.0 °F 37.0 °F 30.1 in Calm   2 mph 78% 0.000 in
03:14 44.0 °F 37.0 °F 30.1 in SE 2 mph 4 mph 78% 0.000 in
03:19 44.0 °F 37.0 °F 30.1 in Calm   4 mph 77% 0.000 in
03:24 44.0 °F 37.0 °F 30.1 in ESE 2 mph 2 mph 77% 0.000 in
03:29 44.0 °F 37.0 °F 30.1 in ESE 2 mph 5 mph 76% 0.000 in
03:34 44.0 °F 37.0 °F 30.1 in ESE 5 mph 5 mph 76% 0.000 in
03:39 44.0 °F 37.0 °F 30.1 in Calm   5 mph 76% 0.000 in
03:44 44.0 °F 38.0 °F 30.1 in SSE 5 mph 6 mph 77% 0.000 in
03:49 45.0 °F 38.0 °F 30.1 in ESE 1 mph 2 mph 78% 0.000 in
03:54 45.0 °F 38.0 °F 30.1 in ESE 4 mph 4 mph 78% 0.000 in
03:59 45.0 °F 38.0 °F 30.1 in ESE 4 mph 6 mph 77% 0.000 in
04:04 45.0 °F 38.0 °F 30.1 in ESE 2 mph 5 mph 76% 0.000 in
04:09 45.0 °F 38.0 °F 30.1 in SE 2 mph 6 mph 77% 0.000 in
04:14 45.0 °F 38.0 °F 30.1 in ESE 5 mph 6 mph 77% 0.000 in
04:19 45.0 °F 39.0 °F 30.1 in Calm   2 mph 77% 0.000 in
04:24 45.0 °F 39.0 °F 30.1 in ESE 1 mph 1 mph 78% 0.000 in
04:29 45.0 °F 39.0 °F 30.1 in SE 1 mph 2 mph 78% 0.000 in
04:34 46.0 °F 39.0 °F 30.1 in ESE 2 mph 4 mph 77% 0.000 in
04:39 46.0 °F 39.0 °F 30.1 in Calm     78% 0.000 in
04:44 46.0 °F 39.0 °F 30.1 in ESE 2 mph 4 mph 78% 0.000 in
04:49 46.0 °F 39.0 °F 30.1 in ESE 2 mph 5 mph 77% 0.000 in
04:54 46.0 °F 39.0 °F 30.1 in ESE 1 mph 4 mph 77% 0.000 in
04:59 46.0 °F 39.0 °F 30.1 in SE 2 mph 7 mph 77% 0.000 in
05:04 46.0 °F 39.0 °F 30.1 in East 4 mph 6 mph 77% 0.000 in
05:09 46.0 °F 39.0 °F 30.1 in ESE 1 mph 1 mph 76% 0.000 in
05:14 46.0 °F 39.0 °F 30.1 in Calm   5 mph 77% 0.000 in
05:19 46.0 °F 39.0 °F 30.1 in SE 1 mph 2 mph 77% 0.000 in
05:24 46.0 °F 39.0 °F 30.1 in SE 1 mph 4 mph 77% 0.000 in
05:29 46.0 °F 39.0 °F 30.1 in SE 2 mph 4 mph 77% 0.000 in
05:34 46.0 °F 40.0 °F 30.1 in Calm   2 mph 78% 0.000 in
05:39 46.0 °F 40.0 °F 30.1 in ESE 4 mph 5 mph 78% 0.000 in
05:44 46.0 °F 40.0 °F 30.1 in Calm   6 mph 78% 0.000 in
05:48 47.0 °F 40.0 °F 30.1 in Calm   6 mph 78% 0.000 in
05:54 46.0 °F 40.0 °F 30.1 in SE 1 mph 1 mph 77% 0.000 in
05:59 46.0 °F 39.0 °F 30.1 in Calm     77% 0.000 in
06:04 46.0 °F 40.0 °F 30.1 in Calm   1 mph 78% 0.000 in
06:09 46.0 °F 40.0 °F 30.1 in Calm   1 mph 78% 0.000 in
06:14 46.0 °F 39.0 °F 30.1 in Calm   2 mph 76% 0.000 in
06:19 46.0 °F 40.0 °F 30.1 in Calm     78% 0.000 in
06:24 46.0 °F 40.0 °F 30.1 in Calm   1 mph 79% 0.000 in
06:29 46.0 °F 40.0 °F 30.1 in Calm   2 mph 80% 0.000 in
06:34 46.0 °F 40.0 °F 30.1 in Calm     81% 0.000 in
06:39 46.0 °F 41.0 °F 30.1 in Calm     83% 0.000 in
06:44 46.0 °F 41.0 °F 30.1 in Calm   1 mph 82% 0.000 in
06:49 46.0 °F 41.0 °F 30.1 in Calm   1 mph 83% 0.000 in
06:54 46.0 °F 40.0 °F 30.1 in Calm     82% 0.000 in
06:59 45.0 °F 41.0 °F 30.1 in Calm   1 mph 84% 0.010 in
07:04 45.0 °F 42.0 °F 30.1 in Calm     88% 0.020 in
07:09 45.0 °F 42.0 °F 30.1 in Calm   1 mph 89% 0.020 in
07:14 45.0 °F 42.0 °F 30.1 in Calm     90% 0.020 in
07:19 45.0 °F 42.0 °F 30.1 in Calm     91% 0.020 in
07:24 44.0 °F 42.0 °F 30.1 in Calm     92% 0.020 in
07:29 44.0 °F 42.0 °F 30.1 in Calm     92% 0.020 in
07:34 44.0 °F 42.0 °F 30.1 in Calm     93% 0.020 in
07:39 44.0 °F 42.0 °F 30.1 in Calm     93% 0.020 in
07:44 44.0 °F 42.0 °F 30.1 in Calm     94% 0.020 in
07:49 44.0 °F 42.0 °F 30.1 in Calm   1 mph 94% 0.020 in
07:54 44.0 °F 42.0 °F 30.1 in Calm     94% 0.020 in
07:59 44.0 °F 43.0 °F 30.1 in Calm   1 mph 95% 0.020 in
08:04 44.0 °F 43.0 °F 30.1 in Calm     95% 0.010 in
08:09 44.0 °F 43.0 °F 30.1 in Calm     95% 0.000 in
08:14 44.0 °F 43.0 °F 30.1 in Calm     95% 0.000 in
08:19 44.0 °F 43.0 °F 30.1 in Calm     95% 0.000 in
08:24 44.0 °F 43.0 °F 30.1 in Calm     95% 0.000 in
08:29 44.0 °F 43.0 °F 30.1 in Calm     95% 0.000 in
08:34 44.0 °F 43.0 °F 30.1 in Calm     95% 0.000 in
08:39 44.0 °F 43.0 °F 30.1 in Calm     95% 0.000 in
08:44 44.0 °F 43.0 °F 30.1 in ESE 1 mph 1 mph 94% 0.000 in
08:49 45.0 °F 43.0 °F 30.1 in Calm   1 mph 95% 0.000 in
08:54 45.0 °F 44.0 °F 30.1 in Calm   1 mph 95% 0.000 in
08:59 45.0 °F 44.0 °F 30.1 in Calm     95% 0.000 in
09:04 45.0 °F 44.0 °F 30.1 in Calm     95% 0.000 in
09:09 45.0 °F 44.0 °F 30.1 in Calm     95% 0.000 in
09:14 45.0 °F 44.0 °F 30.1 in Calm     95% 0.000 in
09:19 45.0 °F 43.0 °F 30.1 in ESE 1 mph 1 mph 94% 0.000 in
09:24 45.0 °F 44.0 °F 30.1 in ESE 1 mph 1 mph 94% 0.000 in
09:29 45.0 °F 44.0 °F 30.1 in Calm     95% 0.000 in
09:34 45.0 °F 44.0 °F 30.1 in Calm     95% 0.000 in
09:39 45.0 °F 44.0 °F 30.1 in Calm   1 mph 94% 0.000 in
09:44 46.0 °F 44.0 °F 30.1 in Calm   1 mph 94% 0.000 in
09:49 46.0 °F 44.0 °F 30.1 in ESE 1 mph 2 mph 93% 0.000 in
09:54 46.0 °F 44.0 °F 30.1 in Calm     94% 0.000 in
09:59 46.0 °F 44.0 °F 30.1 in Calm     93% 0.000 in
10:04 46.0 °F 44.0 °F 30.1 in Calm     93% 0.000 in
10:09 46.0 °F 44.0 °F 30.1 in Calm     93% 0.000 in
10:14 46.0 °F 44.0 °F 30.1 in Calm   1 mph 93% 0.000 in
10:19 46.0 °F 44.0 °F 30.1 in Calm     92% 0.000 in
10:24 46.0 °F 44.0 °F 30.1 in Calm   1 mph 92% 0.000 in
10:29 46.0 °F 44.0 °F 30.1 in Calm   1 mph 93% 0.000 in
10:34 46.0 °F 44.0 °F 30.1 in Calm     93% 0.000 in
10:39 46.0 °F 44.0 °F 30.1 in Calm     92% 0.000 in
10:44 46.0 °F 44.0 °F 30.1 in Calm     93% 0.000 in
10:49 46.0 °F 44.0 °F 30.1 in Calm     93% 0.000 in
10:54 46.0 °F 44.0 °F 30.1 in Calm     93% 0.000 in
10:59 46.0 °F 44.0 °F 30.1 in Calm     93% 0.000 in
11:04 47.0 °F 45.0 °F 30.1 in Calm     93% 0.000 in
11:09 47.0 °F 45.0 °F 30.1 in Calm   1 mph 94% 0.000 in
11:14 47.0 °F 45.0 °F 30.1 in Calm     93% 0.000 in
11:19 47.0 °F 45.0 °F 30.1 in Calm     94% 0.000 in
11:24 47.0 °F 45.0 °F 30.1 in Calm     94% 0.000 in
11:29 47.0 °F 45.0 °F 30.1 in Calm   1 mph 93% 0.000 in
11:34 48.0 °F 46.0 °F 30.1 in Calm     93% 0.000 in
11:39 48.0 °F 46.0 °F 30.1 in Calm     93% 0.000 in
11:44 48.0 °F 45.0 °F 30.1 in Calm     92% 0.000 in
11:49 47.0 °F 46.0 °F 30.1 in Calm     96% 0.000 in
11:54 47.0 °F 45.0 °F 30.1 in Calm     92% 0.000 in
11:59 47.0 °F 45.0 °F 30.1 in Calm     93% 0.000 in
12:04 47.0 °F 45.0 °F 30.1 in Calm     93% 0.000 in
12:09 48.0 °F 45.0 °F 30.1 in Calm     92% 0.000 in
12:14 48.0 °F 45.0 °F 30.1 in Calm     92% 0.000 in
12:19 48.0 °F 45.0 °F 30.0 in Calm     92% 0.000 in
12:24 48.0 °F 45.0 °F 30.0 in Calm     92% 0.000 in
12:29 48.0 °F 46.0 °F 30.0 in Calm     93% 0.000 in
12:34 48.0 °F 46.0 °F 30.0 in Calm     93% 0.000 in
12:39 48.0 °F 46.0 °F 30.0 in Calm     93% 0.000 in
12:44 48.0 °F 46.0 °F 30.0 in Calm     93% 0.000 in
12:49 48.0 °F 47.0 °F 30.0 in East 3 mph 4 mph 94% 0.000 in
12:54 49.0 °F 48.0 °F 30.0 in ESE 2 mph 4 mph 96% 0.000 in
12:59 50.0 °F 48.0 °F 30.0 in West 2 mph 2 mph 96% 0.000 in
13:04 50.0 °F 49.0 °F 30.0 in West 1 mph 2 mph 95% 0.000 in
13:09 50.0 °F 49.0 °F 30.0 in West 2 mph 2 mph 94% 0.000 in
13:14 51.0 °F 49.0 °F 30.0 in Calm   1 mph 94% 0.000 in
13:19 51.0 °F 49.0 °F 30.0 in WSW 1 mph 1 mph 93% 0.000 in
13:24 51.0 °F 49.0 °F 30.0 in SE 1 mph 4 mph 93% 0.000 in
13:29 51.0 °F 49.0 °F 30.0 in Calm   4 mph 92% 0.000 in
13:34 51.0 °F 49.0 °F 30.0 in South 1 mph 4 mph 92% 0.000 in
13:39 51.0 °F 49.0 °F 30.0 in South 3 mph 3 mph 92% 0.000 in
13:44 51.0 °F 49.0 °F 30.0 in SSW 1 mph 3 mph 92% 0.000 in
13:49 51.0 °F 49.0 °F 30.0 in SSE 2 mph 4 mph 92% 0.000 in
13:54 52.0 °F 49.0 °F 30.0 in ESE 1 mph 4 mph 91% 0.000 in
13:59 52.0 °F 50.0 °F 30.0 in ESE 1 mph 1 mph 92% 0.000 in
14:04 52.0 °F 50.0 °F 30.0 in Calm   2 mph 92% 0.000 in
14:09 52.0 °F 50.0 °F 30.0 in Calm     92% 0.000 in
14:14 52.0 °F 50.0 °F 30.0 in SE 2 mph 4 mph 92% 0.000 in
14:19 52.0 °F 50.0 °F 30.0 in Calm   2 mph 92% 0.000 in
14:24 53.0 °F 50.0 °F 30.0 in SE 1 mph 2 mph 92% 0.000 in
14:29 53.0 °F 50.0 °F 30.0 in SSE 4 mph 4 mph 92% 0.000 in
14:34 53.0 °F 50.0 °F 30.0 in Calm   4 mph 92% 0.000 in
14:39 53.0 °F 51.0 °F 30.0 in SE 1 mph 5 mph 92% 0.000 in
14:44 53.0 °F 51.0 °F 30.0 in SE 1 mph 1 mph 91% 0.000 in
14:49 53.0 °F 51.0 °F 30.0 in SE 1 mph 2 mph 91% 0.000 in
14:54 54.0 °F 51.0 °F 30.0 in Calm   2 mph 91% 0.000 in
14:59 54.0 °F 51.0 °F 30.0 in SE 1 mph 1 mph 90% 0.000 in
15:04 54.0 °F 51.0 °F 30.0 in SE 1 mph 1 mph 89% 0.000 in
15:09 54.0 °F 51.0 °F 30.0 in SE 1 mph 2 mph 89% 0.000 in
15:14 54.0 °F 51.0 °F 30.0 in Calm   3 mph 90% 0.000 in
15:19 54.0 °F 51.0 °F 30.0 in SE 2 mph 5 mph 90% 0.000 in
15:24 54.0 °F 51.0 °F 30.0 in ESE 1 mph 2 mph 90% 0.000 in
15:29 54.0 °F 51.0 °F 30.0 in Calm   1 mph 91% 0.000 in
15:34 54.0 °F 51.0 °F 30.0 in South 1 mph 2 mph 91% 0.000 in
15:39 54.0 °F 51.0 °F 30.0 in ESE 2 mph 4 mph 91% 0.000 in
15:44 54.0 °F 51.0 °F 30.0 in Calm   4 mph 91% 0.000 in
15:49 54.0 °F 52.0 °F 30.0 in Calm     91% 0.000 in
15:54 54.0 °F 52.0 °F 30.0 in Calm     91% 0.000 in
15:59 54.0 °F 51.0 °F 30.0 in Calm   1 mph 90% 0.000 in
16:04 54.0 °F 51.0 °F 30.0 in Calm   1 mph 90% 0.000 in
16:09 54.0 °F 51.0 °F 30.0 in Calm   1 mph 90% 0.000 in
16:14 55.0 °F 52.0 °F 30.0 in Calm     90% 0.000 in
16:19 55.0 °F 52.0 °F 30.0 in Calm     90% 0.000 in
16:24 55.0 °F 52.0 °F 30.0 in Calm     90% 0.000 in
16:29 55.0 °F 52.0 °F 30.0 in Calm     90% 0.000 in
16:34 55.0 °F 52.0 °F 30.0 in Calm     90% 0.000 in
16:39 55.0 °F 52.0 °F 30.0 in Calm     90% 0.000 in
16:44 55.0 °F 52.0 °F 30.0 in Calm   1 mph 90% 0.000 in
16:49 55.0 °F 52.0 °F 30.0 in Calm   1 mph 90% 0.000 in
16:54 55.0 °F 52.0 °F 30.0 in Calm   1 mph 90% 0.000 in
16:59 55.0 °F 52.0 °F 30.0 in Calm     90% 0.000 in
17:04 55.0 °F 52.0 °F 30.0 in Calm     90% 0.000 in
17:09 55.0 °F 52.0 °F 30.0 in Calm     90% 0.000 in
17:14 55.0 °F 52.0 °F 30.0 in SE 1 mph 1 mph 90% 0.000 in
17:19 55.0 °F 52.0 °F 30.0 in SE 1 mph 1 mph 91% 0.000 in
17:24 55.0 °F 52.0 °F 30.0 in Calm   1 mph 91% 0.000 in
17:29 55.0 °F 52.0 °F 30.0 in Calm     91% 0.000 in
17:34 55.0 °F 52.0 °F 30.0 in Calm     91% 0.000 in
17:39 55.0 °F 52.0 °F 30.0 in Calm     90% 0.000 in
17:44 54.0 °F 51.0 °F 30.0 in Calm     90% 0.000 in
17:49 54.0 °F 51.0 °F 30.0 in Calm     90% 0.000 in
17:54 54.0 °F 51.0 °F 30.0 in Calm     90% 0.000 in
17:59 54.0 °F 51.0 °F 30.0 in Calm     90% 0.000 in
18:04 53.0 °F 51.0 °F 30.0 in Calm     90% 0.000 in
18:09 53.0 °F 50.0 °F 30.0 in Calm     90% 0.000 in
18:14 53.0 °F 50.0 °F 30.0 in Calm     90% 0.000 in
18:19 53.0 °F 51.0 °F 30.0 in Calm     91% 0.000 in
18:24 53.0 °F 51.0 °F 30.0 in Calm     91% 0.000 in
18:29 53.0 °F 50.0 °F 30.0 in Calm     91% 0.000 in
18:34 53.0 °F 50.0 °F 30.0 in Calm     91% 0.000 in
18:39 53.0 °F 50.0 °F 30.0 in Calm     91% 0.000 in
18:44 53.0 °F 50.0 °F 30.0 in Calm     91% 0.000 in
18:49 53.0 °F 51.0 °F 30.0 in Calm     92% 0.000 in
18:54 53.0 °F 51.0 °F 30.0 in Calm     92% 0.000 in
18:59 53.0 °F 50.0 °F 30.0 in Calm     92% 0.000 in
19:04 53.0 °F 51.0 °F 30.0 in Calm     92% 0.000 in
19:09 53.0 °F 51.0 °F 30.0 in Calm     92% 0.000 in
19:14 53.0 °F 51.0 °F 30.0 in Calm     92% 0.000 in
19:19 53.0 °F 51.0 °F 30.0 in Calm     92% 0.000 in
19:24 53.0 °F 51.0 °F 30.0 in Calm     93% 0.000 in
19:29 53.0 °F 51.0 °F 30.0 in Calm     93% 0.000 in
19:34 53.0 °F 51.0 °F 30.0 in Calm     93% 0.000 in
19:39 53.0 °F 51.0 °F 30.0 in Calm     93% 0.000 in
19:44 53.0 °F 51.0 °F 30.0 in Calm     93% 0.000 in
19:49 53.0 °F 51.0 °F 30.0 in Calm     93% 0.000 in
19:54 53.0 °F 51.0 °F 30.0 in Calm     93% 0.000 in
19:59 53.0 °F 51.0 °F 30.0 in Calm     93% 0.000 in
20:04 53.0 °F 51.0 °F 30.0 in Calm     93% 0.000 in
20:09 53.0 °F 51.0 °F 30.0 in Calm     93% 0.000 in
20:14 53.0 °F 52.0 °F 30.0 in Calm     94% 0.000 in
20:19 53.0 °F 52.0 °F 30.0 in Calm     94% 0.000 in
20:24 53.0 °F 52.0 °F 30.0 in Calm     94% 0.000 in
20:29 54.0 °F 52.0 °F 30.0 in Calm     95% 0.000 in
20:34 54.0 °F 53.0 °F 30.0 in Calm     95% 0.000 in
20:39 54.0 °F 53.0 °F 30.0 in Calm     95% 0.000 in
20:44 54.0 °F 53.0 °F 30.0 in Calm     94% 0.000 in
20:49 55.0 °F 53.0 °F 30.0 in Calm   1 mph 94% 0.000 in
20:54 55.0 °F 53.0 °F 30.0 in Calm   1 mph 94% 0.000 in
20:59 56.0 °F 54.0 °F 30.0 in Calm     93% 0.000 in
21:04 56.0 °F 54.0 °F 30.0 in Calm     92% 0.000 in
21:09 56.0 °F 54.0 °F 30.0 in SE 1 mph 2 mph 91% 0.000 in
21:14 57.0 °F 54.0 °F 30.0 in Calm   2 mph 91% 0.000 in
21:19 57.0 °F 54.0 °F 30.0 in Calm   1 mph 91% 0.000 in
21:24 57.0 °F 54.0 °F 30.0 in Calm   1 mph 90% 0.000 in
21:29 57.0 °F 54.0 °F 30.0 in Calm   1 mph 90% 0.000 in
21:34 57.0 °F 54.0 °F 30.0 in SE 2 mph 2 mph 90% 0.000 in
21:39 57.0 °F 54.0 °F 30.0 in Calm     90% 0.000 in
21:44 57.0 °F 54.0 °F 30.0 in Calm     89% 0.000 in
21:49 57.0 °F 54.0 °F 30.0 in Calm     89% 0.000 in
21:54 57.0 °F 54.0 °F 30.0 in Calm     89% 0.000 in
21:59 57.0 °F 54.0 °F 30.0 in Calm     89% 0.000 in
22:04 57.0 °F 54.0 °F 30.0 in Calm     89% 0.000 in
22:09 57.0 °F 54.0 °F 30.0 in SE 1 mph 1 mph 89% 0.000 in
22:14 57.0 °F 54.0 °F 30.0 in Calm   1 mph 89% 0.000 in
22:19 57.0 °F 54.0 °F 30.0 in Calm     89% 0.000 in
22:24 57.0 °F 54.0 °F 30.0 in SE 1 mph 2 mph 88% 0.000 in
22:29 58.0 °F 54.0 °F 30.0 in Calm     88% 0.000 in
22:34 58.0 °F 54.0 °F 30.0 in SE 1 mph 1 mph 88% 0.000 in
22:39 58.0 °F 54.0 °F 30.0 in Calm   4 mph 88% 0.000 in
22:44 58.0 °F 54.0 °F 30.0 in Calm   2 mph 87% 0.000 in
22:49 58.0 °F 54.0 °F 30.0 in Calm     87% 0.000 in
22:54 58.0 °F 54.0 °F 30.0 in Calm   1 mph 87% 0.000 in
22:59 58.0 °F 55.0 °F 30.0 in Calm   1 mph 89% 0.000 in
23:04 58.0 °F 55.0 °F 30.0 in Calm   1 mph 87% 0.000 in
23:09 58.0 °F 55.0 °F 30.0 in SE 1 mph 4 mph 87% 0.000 in
23:14 58.0 °F 55.0 °F 30.0 in Calm   2 mph 87% 0.000 in
23:19 58.0 °F 55.0 °F 30.0 in SE 1 mph 2 mph 87% 0.000 in
23:24 58.0 °F 55.0 °F 30.0 in Calm   2 mph 87% 0.000 in
23:29 58.0 °F 55.0 °F 30.0 in West 2 mph 3 mph 87% 0.000 in
23:34 58.0 °F 55.0 °F 30.0 in Calm     87% 0.000 in
23:39 59.0 °F 55.0 °F 30.0 in ESE 1 mph 5 mph 87% 0.000 in
23:44 59.0 °F 55.0 °F 30.0 in Calm   5 mph 87% 0.000 in
23:49 59.0 °F 55.0 °F 30.0 in Calm     87% 0.000 in
23:54 59.0 °F 55.0 °F 30.0 in Calm     87% 0.000 in
23:59 59.0 °F 55.0 °F 30.0 in Calm     87% 0.000 in
East Ellijay Weather
Compliments of Weather Underground - 2 mb